Time;durP1;ratioP1;P1;durP2;ratioP2;P2;SDS_P1;SDS_P2;PMS_P1;PMS_P2;Temp;Humidity;BMP_temperature;BMP_pressure;BME280_temperature;BME280_humidity;BME280_pressure;Samples;Min_cycle;Max_cycle;Signal;HPM_P1;HPM_P2
2021/09/16 00:00:40;;;;;;;3.15;0.80;;;;;;;;;;5094351;28;20123;-63
2021/09/16 00:03:26;;;;;;;4.28;0.50;;;;;;;;;;5094190;28;20054;-62
2021/09/16 00:06:11;;;;;;;4.32;0.75;;;;;;;;;;5094475;28;20060;-62
2021/09/16 00:08:56;;;;;;;5.53;1.20;;;;;;;;;;5094367;28;20056;-63
2021/09/16 00:11:41;;;;;;;5.25;0.60;;;;;;;;;;5094037;28;20052;-62
2021/09/16 00:14:27;;;;;;;12.23;1.30;;;;;;;;;;5094121;28;20468;-63
2021/09/16 00:17:14;;;;;;;6.03;1.50;;;;;;;;;;5094131;28;20048;-63
2021/09/16 00:19:59;;;;;;;6.65;1.17;;;;;;;;;;5093921;28;20421;-63
2021/09/16 00:22:44;;;;;;;5.00;0.88;;;;;;;;;;5093692;28;20052;-64
2021/09/16 00:25:30;;;;;;;5.78;0.98;;;;;;;;;;5093689;28;20506;-64
2021/09/16 00:28:15;;;;;;;4.25;1.33;;;;;;;;;;5093851;28;20056;-63
2021/09/16 00:31:00;;;;;;;7.40;0.70;;;;;;;;;;5093875;28;20055;-64
2021/09/16 00:33:45;;;;;;;2.85;0.82;;;;;;;;;;5093902;28;20064;-63
2021/09/16 00:36:31;;;;;;;5.57;1.02;;;;;;;;;;5093931;28;20051;-64
2021/09/16 00:39:16;;;;;;;3.42;0.98;;;;;;;;;;5093925;28;20048;-63
2021/09/16 00:42:01;;;;;;;3.63;0.70;;;;;;;;;;5093704;28;20418;-63
2021/09/16 00:44:47;;;;;;;2.50;0.80;;;;;;;;;;5093247;28;20380;-63
2021/09/16 00:47:32;;;;;;;8.48;0.95;;;;;;;;;;5093364;28;20514;-63
2021/09/16 00:50:20;;;;;;;3.72;0.77;;;;;;;;;;5093303;28;20044;-62
2021/09/16 00:53:05;;;;;;;4.75;1.25;;;;;;;;;;5093427;28;20044;-62
2021/09/16 00:55:50;;;;;;;2.45;0.88;;;;;;;;;;5092159;28;20056;-63
2021/09/16 00:58:40;;;;;;;5.68;1.17;;;;;;;;;;5092488;28;20048;-62
2021/09/16 01:01:25;;;;;;;7.20;1.17;;;;;;;;;;5093158;28;20087;-62
2021/09/16 01:04:10;;;;;;;7.07;1.08;;;;;;;;;;5092842;28;20448;-63
2021/09/16 01:06:56;;;;;;;4.55;1.00;;;;;;;;;;5093390;28;20048;-64
2021/09/16 01:09:42;;;;;;;5.07;1.63;;;;;;;;;;5092994;28;20056;-64
2021/09/16 01:12:27;;;;;;;6.38;1.88;;;;;;;;;;5093425;28;20375;-63
2021/09/16 01:15:13;;;;;;;7.13;1.20;;;;;;;;;;5092833;28;20048;-64
2021/09/16 01:17:58;;;;;;;3.72;1.25;;;;;;;;;;5092857;28;20044;-63
2021/09/16 01:20:43;;;;;;;4.63;0.93;;;;;;;;;;5092670;28;20494;-63
2021/09/16 01:23:29;;;;;;;5.53;1.45;;;;;;;;;;5092735;28;20127;-63
2021/09/16 01:26:14;;;;;;;4.07;1.45;;;;;;;;;;5092688;28;20436;-63
2021/09/16 01:28:59;;;;;;;7.78;2.42;;;;;;;;;;5092578;28;20052;-63
2021/09/16 01:31:51;;;;;;;6.13;1.98;;;;;;;;;;5092463;28;20417;-63
2021/09/16 01:34:37;;;;;;;8.73;2.28;;;;;;;;;;5091958;28;20417;-63
2021/09/16 01:37:22;;;;;;;6.97;1.98;;;;;;;;;;5092566;28;20553;-64
2021/09/16 01:40:07;;;;;;;6.07;1.35;;;;;;;;;;5092651;28;20048;-64
2021/09/16 01:42:52;;;;;;;5.15;1.60;;;;;;;;;;5092535;28;20048;-63
2021/09/16 01:45:38;;;;;;;6.63;1.55;;;;;;;;;;5074251;28;20086;-64
2021/09/16 01:48:23;;;;;;;6.43;1.75;;;;;;;;;;5092551;28;20114;-64
2021/09/16 01:51:08;;;;;;;3.80;1.52;;;;;;;;;;5092193;28;20048;-64
2021/09/16 01:53:53;;;;;;;7.30;1.70;;;;;;;;;;5092074;28;20079;-64
2021/09/16 01:56:39;;;;;;;6.05;1.30;;;;;;;;;;5092455;28;20048;-64
2021/09/16 01:59:24;;;;;;;6.50;1.33;;;;;;;;;;5092317;28;20316;-63
2021/09/16 02:02:10;;;;;;;6.88;1.70;;;;;;;;;;5092209;28;20421;-63
2021/09/16 02:04:55;;;;;;;5.63;1.40;;;;;;;;;;5092140;28;20127;-64
2021/09/16 02:07:40;;;;;;;3.92;1.50;;;;;;;;;;5092249;28;20056;-64
2021/09/16 02:10:26;;;;;;;6.72;1.65;;;;;;;;;;5091868;28;20498;-62
2021/09/16 02:13:11;;;;;;;5.32;1.10;;;;;;;;;;5092371;28;20052;-62
2021/09/16 02:15:56;;;;;;;9.32;1.58;;;;;;;;;;5092209;28;20123;-63
2021/09/16 02:18:41;;;;;;;8.77;1.95;;;;;;;;;;5092051;28;20044;-62
2021/09/16 02:21:27;;;;;;;7.38;1.83;;;;;;;;;;5092144;28;20052;-63
2021/09/16 02:24:12;;;;;;;6.90;1.63;;;;;;;;;;5091486;28;20052;-63
2021/09/16 02:26:57;;;;;;;9.02;1.60;;;;;;;;;;5090938;28;20051;-63
2021/09/16 02:29:43;;;;;;;5.10;1.33;;;;;;;;;;5091952;28;20119;-63
2021/09/16 02:32:28;;;;;;;4.60;1.45;;;;;;;;;;5092092;28;20060;-63
2021/09/16 02:35:13;;;;;;;6.28;1.50;;;;;;;;;;5091719;28;20048;-63
2021/09/16 02:37:59;;;;;;;5.93;1.50;;;;;;;;;;5092109;28;20056;-63
2021/09/16 02:40:44;;;;;;;12.57;1.80;;;;;;;;;;5091931;28;20052;-63
2021/09/16 02:43:30;;;;;;;8.18;1.98;;;;;;;;;;5091643;28;20048;-63
2021/09/16 02:46:15;;;;;;;7.20;1.40;;;;;;;;;;5095834;28;20044;-63
2021/09/16 02:49:01;;;;;;;5.60;1.85;;;;;;;;;;5095898;28;20052;-63
2021/09/16 02:51:46;;;;;;;7.07;1.45;;;;;;;;;;5095509;28;20052;-63
2021/09/16 02:54:32;;;;;;;7.07;1.95;;;;;;;;;;5095383;28;20518;-63
2021/09/16 02:57:17;;;;;;;5.65;2.25;;;;;;;;;;5095700;28;20083;-63
2021/09/16 03:00:03;;;;;;;7.88;2.00;;;;;;;;;;5095563;28;20044;-63
2021/09/16 03:02:48;;;;;;;9.77;2.45;;;;;;;;;;5095406;28;20056;-63
2021/09/16 03:05:33;;;;;;;8.50;2.58;;;;;;;;;;5095458;28;20044;-63
2021/09/16 03:08:19;;;;;;;7.65;2.72;;;;;;;;;;5095772;28;20051;-63
2021/09/16 03:11:04;;;;;;;8.85;3.08;;;;;;;;;;5095104;28;20052;-63
2021/09/16 03:13:49;;;;;;;8.27;2.83;;;;;;;;;;5095309;28;20063;-63
2021/09/16 03:16:35;;;;;;;9.65;2.65;;;;;;;;;;5095313;28;20410;-63
2021/09/16 03:19:20;;;;;;;8.05;3.15;;;;;;;;;;5095071;28;20048;-63
2021/09/16 03:22:05;;;;;;;9.18;3.55;;;;;;;;;;5095331;28;20413;-63
2021/09/16 03:24:51;;;;;;;7.28;2.80;;;;;;;;;;5094926;28;20052;-63
2021/09/16 03:27:36;;;;;;;9.23;3.28;;;;;;;;;;5095019;28;20056;-64
2021/09/16 03:30:21;;;;;;;8.52;3.40;;;;;;;;;;5095045;28;20052;-64
2021/09/16 03:33:07;;;;;;;9.90;3.58;;;;;;;;;;5095052;28;20048;-63
2021/09/16 03:35:52;;;;;;;11.65;3.72;;;;;;;;;;5094865;28;20056;-63
2021/09/16 03:38:37;;;;;;;8.18;3.88;;;;;;;;;;5095050;28;20052;-63
2021/09/16 03:41:23;;;;;;;8.20;3.70;;;;;;;;;;5094730;28;20090;-63
2021/09/16 03:44:08;;;;;;;11.50;3.42;;;;;;;;;;5094466;28;20056;-63
2021/09/16 03:46:53;;;;;;;8.93;3.67;;;;;;;;;;5094865;28;20052;-63
2021/09/16 03:49:39;;;;;;;12.38;3.97;;;;;;;;;;5094640;28;20052;-63
2021/09/16 03:52:24;;;;;;;8.70;4.18;;;;;;;;;;5128157;22;20479;-63
2021/09/16 03:55:09;;;;;;;13.75;4.28;;;;;;;;;;5114702;28;20123;-63
2021/09/16 03:57:54;;;;;;;8.05;3.78;;;;;;;;;;5114987;28;20047;-64
2021/09/16 04:00:40;;;;;;;11.68;4.43;;;;;;;;;;5115245;28;20051;-64
2021/09/16 04:03:25;;;;;;;9.25;3.47;;;;;;;;;;5114839;28;20063;-61
2021/09/16 04:06:10;;;;;;;9.07;3.88;;;;;;;;;;5115593;28;20122;-64
2021/09/16 04:08:56;;;;;;;10.32;3.95;;;;;;;;;;5114853;28;20439;-64
2021/09/16 04:11:41;;;;;;;9.85;4.47;;;;;;;;;;5114938;28;20048;-62
2021/09/16 04:14:27;;;;;;;12.90;4.63;;;;;;;;;;5114452;28;20460;-62
2021/09/16 04:17:12;;;;;;;10.75;4.53;;;;;;;;;;5114592;28;20501;-63
2021/09/16 04:19:57;;;;;;;12.05;5.28;;;;;;;;;;5114452;28;20052;-63
2021/09/16 04:22:42;;;;;;;11.38;4.60;;;;;;;;;;5114575;28;20055;-63
2021/09/16 04:25:28;;;;;;;12.45;4.82;;;;;;;;;;5114384;28;20126;-62
2021/09/16 04:28:13;;;;;;;9.65;5.55;;;;;;;;;;5114777;28;20052;-63
2021/09/16 04:30:58;;;;;;;11.07;4.88;;;;;;;;;;5114250;28;20048;-62
2021/09/16 04:33:44;;;;;;;10.65;5.28;;;;;;;;;;5113867;28;20123;-62
2021/09/16 04:36:29;;;;;;;14.38;4.88;;;;;;;;;;5114045;28;20409;-62
2021/09/16 04:39:14;;;;;;;12.18;6.22;;;;;;;;;;5114247;28;20047;-63
2021/09/16 04:42:00;;;;;;;11.23;5.20;;;;;;;;;;5113991;28;20066;-63
2021/09/16 04:44:45;;;;;;;11.80;4.90;;;;;;;;;;5113622;28;20087;-63
2021/09/16 04:47:31;;;;;;;14.45;6.10;;;;;;;;;;5114102;28;20051;-62
2021/09/16 04:50:16;;;;;;;12.73;6.30;;;;;;;;;;5113839;28;20091;-62
2021/09/16 04:53:01;;;;;;;16.33;7.00;;;;;;;;;;5113721;28;20062;-64
2021/09/16 04:55:47;;;;;;;11.57;6.30;;;;;;;;;;5113798;28;20052;-62
2021/09/16 04:58:32;;;;;;;13.63;7.40;;;;;;;;;;5113665;28;20549;-62
2021/09/16 05:01:18;;;;;;;13.77;7.07;;;;;;;;;;5113537;28;20052;-62
2021/09/16 05:04:03;;;;;;;11.75;6.50;;;;;;;;;;5113752;28;20051;-62
2021/09/16 05:06:48;;;;;;;10.70;6.65;;;;;;;;;;5113479;28;20572;-63
2021/09/16 05:09:34;;;;;;;16.30;8.15;;;;;;;;;;5113445;28;20054;-63
2021/09/16 05:12:19;;;;;;;16.65;8.32;;;;;;;;;;5113208;28;20508;-63
2021/09/16 05:15:05;;;;;;;12.15;7.88;;;;;;;;;;5113158;28;20048;-63
2021/09/16 05:17:50;;;;;;;15.63;7.72;;;;;;;;;;5113364;28;20122;-62
2021/09/16 05:20:36;;;;;;;13.80;7.00;;;;;;;;;;5113773;28;20048;-64
2021/09/16 05:23:21;;;;;;;15.40;6.85;;;;;;;;;;5113549;28;20056;-63
2021/09/16 05:26:06;;;;;;;17.33;8.15;;;;;;;;;;5113489;28;20052;-64
2021/09/16 05:28:52;;;;;;;16.85;6.97;;;;;;;;;;5113471;28;20391;-64
2021/09/16 05:31:37;;;;;;;14.38;6.57;;;;;;;;;;5113243;28;20130;-63
2021/09/16 05:34:22;;;;;;;17.90;7.15;;;;;;;;;;5113024;28;20408;-62
2021/09/16 05:37:07;;;;;;;12.55;7.03;;;;;;;;;;5112895;28;20148;-62
2021/09/16 05:39:53;;;;;;;14.68;6.18;;;;;;;;;;5113013;28;20051;-63
2021/09/16 05:42:38;;;;;;;16.50;5.85;;;;;;;;;;5112980;28;20052;-63
2021/09/16 05:45:23;;;;;;;16.48;6.10;;;;;;;;;;5112570;28;20126;-63
2021/09/16 05:48:09;;;;;;;15.15;5.95;;;;;;;;;;5112991;28;20047;-63
2021/09/16 05:50:54;;;;;;;12.00;5.70;;;;;;;;;;5112877;28;20051;-63
2021/09/16 05:53:39;;;;;;;10.98;5.40;;;;;;;;;;5112380;28;20055;-63
2021/09/16 05:56:25;;;;;;;15.88;6.75;;;;;;;;;;5112831;28;20460;-63
2021/09/16 05:59:10;;;;;;;16.45;5.85;;;;;;;;;;5113062;28;20043;-64
2021/09/16 06:01:55;;;;;;;14.75;5.05;;;;;;;;;;5112548;28;20051;-63
2021/09/16 06:04:41;;;;;;;15.60;6.00;;;;;;;;;;5112299;28;20509;-63
2021/09/16 06:07:26;;;;;;;11.45;5.35;;;;;;;;;;5112594;28;20430;-64
2021/09/16 06:10:11;;;;;;;14.10;5.55;;;;;;;;;;5112510;28;20065;-62
2021/09/16 06:12:57;;;;;;;10.27;4.85;;;;;;;;;;5112589;28;20404;-62
2021/09/16 06:15:42;;;;;;;12.73;5.30;;;;;;;;;;5112264;28;20052;-63
2021/09/16 06:18:27;;;;;;;15.25;5.10;;;;;;;;;;5112890;28;20435;-63
2021/09/16 06:21:13;;;;;;;11.70;5.43;;;;;;;;;;5119541;28;20047;-63
2021/09/16 06:23:58;;;;;;;14.85;5.25;;;;;;;;;;5119013;28;20127;-63
2021/09/16 06:26:43;;;;;;;11.60;4.85;;;;;;;;;;5120601;28;20059;-64
2021/09/16 06:29:28;;;;;;;12.75;4.22;;;;;;;;;;5119592;28;20087;-62
2021/09/16 06:32:14;;;;;;;10.95;3.90;;;;;;;;;;5119133;28;20181;-63
2021/09/16 06:34:59;;;;;;;9.90;4.20;;;;;;;;;;5118929;28;20410;-63
2021/09/16 06:37:44;;;;;;;9.82;3.95;;;;;;;;;;5119227;28;20048;-62
2021/09/16 06:40:30;;;;;;;9.25;3.83;;;;;;;;;;5119135;28;20043;-63
2021/09/16 06:43:15;;;;;;;11.77;3.85;;;;;;;;;;5119087;28;20055;-62
2021/09/16 06:46:00;;;;;;;9.60;3.60;;;;;;;;;;5119167;28;20059;-63
2021/09/16 06:48:46;;;;;;;8.23;2.88;;;;;;;;;;5118941;28;20501;-63
2021/09/16 06:51:31;;;;;;;11.15;3.05;;;;;;;;;;5118700;28;20126;-64
2021/09/16 06:54:16;;;;;;;8.98;3.15;;;;;;;;;;5120269;28;20051;-64
2021/09/16 06:57:02;;;;;;;5.63;2.67;;;;;;;;;;5120061;28;20048;-62
2021/09/16 06:59:47;;;;;;;5.18;2.42;;;;;;;;;;5118833;28;20047;-62
2021/09/16 07:02:33;;;;;;;5.55;2.60;;;;;;;;;;5119027;28;20130;-62
2021/09/16 07:05:18;;;;;;;5.47;2.80;;;;;;;;;;5118740;28;20060;-62
2021/09/16 07:08:04;;;;;;;12.25;2.90;;;;;;;;;;5118850;28;20055;-62
2021/09/16 07:10:49;;;;;;;8.38;2.83;;;;;;;;;;5103566;28;20100;-63
2021/09/16 07:13:34;;;;;;;9.80;2.92;;;;;;;;;;5119232;28;20055;-62
2021/09/16 07:16:19;;;;;;;10.05;2.92;;;;;;;;;;5119493;28;20118;-62
2021/09/16 07:19:05;;;;;;;6.40;2.70;;;;;;;;;;5118634;28;20043;-62
2021/09/16 07:21:50;;;;;;;8.15;2.45;;;;;;;;;;5118729;28;20047;-62
2021/09/16 07:24:35;;;;;;;7.05;3.05;;;;;;;;;;5119274;28;20051;-63
2021/09/16 07:27:21;;;;;;;6.15;2.50;;;;;;;;;;5120014;28;20052;-63
2021/09/16 07:30:06;;;;;;;8.75;2.60;;;;;;;;;;5117708;28;20459;-62
2021/09/16 07:32:52;;;;;;;8.52;2.53;;;;;;;;;;5115014;28;20047;-62
2021/09/16 07:35:37;;;;;;;4.65;2.13;;;;;;;;;;5117750;28;20052;-64
2021/09/16 07:38:23;;;;;;;5.68;2.47;;;;;;;;;;5117826;28;20051;-64
2021/09/16 07:41:08;;;;;;;6.10;2.45;;;;;;;;;;5117679;28;20047;-64
2021/09/16 07:43:53;;;;;;;7.00;2.85;;;;;;;;;;5117180;28;20051;-64
2021/09/16 07:46:39;;;;;;;11.05;2.72;;;;;;;;;;5117489;28;20493;-64
2021/09/16 07:49:24;;;;;;;11.27;2.80;;;;;;;;;;5117527;28;20444;-64
2021/09/16 07:52:09;;;;;;;5.70;2.00;;;;;;;;;;5117194;28;20501;-64
2021/09/16 07:54:55;;;;;;;9.82;3.00;;;;;;;;;;5116714;28;20126;-64
2021/09/16 07:57:40;;;;;;;9.68;2.58;;;;;;;;;;5114882;28;20505;-63
2021/09/16 08:00:25;;;;;;;9.13;2.75;;;;;;;;;;5114863;28;20051;-63
2021/09/16 08:03:10;;;;;;;6.40;2.05;;;;;;;;;;5114785;28;20556;-62
2021/09/16 08:05:56;;;;;;;8.18;2.50;;;;;;;;;;5117004;28;20052;-64
2021/09/16 08:08:41;;;;;;;8.07;2.17;;;;;;;;;;5116936;28;20059;-63
2021/09/16 08:11:26;;;;;;;8.00;2.50;;;;;;;;;;5117571;28;20052;-62
2021/09/16 08:14:12;;;;;;;9.57;2.05;;;;;;;;;;5115466;28;20047;-62
2021/09/16 08:16:58;;;;;;;7.30;2.40;;;;;;;;;;5114541;28;20052;-62
2021/09/16 08:19:43;;;;;;;6.47;1.92;;;;;;;;;;5114855;28;20052;-63
2021/09/16 08:22:28;;;;;;;6.03;1.92;;;;;;;;;;5114482;28;20127;-63
2021/09/16 08:25:14;;;;;;;10.10;2.60;;;;;;;;;;5114193;28;20059;-62
2021/09/16 08:27:59;;;;;;;10.60;2.25;;;;;;;;;;5114548;28;20119;-62
2021/09/16 08:30:45;;;;;;;7.05;2.13;;;;;;;;;;5114338;28;20059;-62
2021/09/16 08:33:30;;;;;;;5.85;1.95;;;;;;;;;;5115499;28;20051;-62
2021/09/16 08:36:15;;;;;;;8.95;2.08;;;;;;;;;;5114818;28;20081;-63
2021/09/16 08:39:01;;;;;;;6.18;1.77;;;;;;;;;;5114289;28;20060;-62
2021/09/16 08:41:46;;;;;;;8.32;2.15;;;;;;;;;;5113646;28;20057;-63
2021/09/16 08:44:31;;;;;;;7.53;1.88;;;;;;;;;;5113703;28;20055;-62
2021/09/16 08:47:17;;;;;;;6.43;1.83;;;;;;;;;;5114088;28;20048;-62
2021/09/16 08:50:02;;;;;;;6.55;1.83;;;;;;;;;;5115782;28;20055;-64
2021/09/16 08:52:48;;;;;;;5.13;1.98;;;;;;;;;;5116995;28;20059;-62
2021/09/16 08:55:33;;;;;;;8.82;2.00;;;;;;;;;;5113695;28;20122;-62
2021/09/16 08:58:19;;;;;;;5.45;2.05;;;;;;;;;;5098507;28;20118;-62
2021/09/16 09:01:04;;;;;;;7.05;1.55;;;;;;;;;;5113500;28;20051;-64
2021/09/16 09:03:49;;;;;;;8.60;1.77;;;;;;;;;;5113420;28;20052;-63
2021/09/16 09:06:38;;;;;;;7.57;1.73;;;;;;;;;;5113656;28;20055;-62
2021/09/16 09:09:23;;;;;;;7.32;1.50;;;;;;;;;;5113412;28;20051;-62
2021/09/16 09:12:15;;;;;;;6.32;1.30;;;;;;;;;;5114783;28;20048;-62
2021/09/16 09:15:01;;;;;;;6.70;1.50;;;;;;;;;;5113232;28;20051;-62
2021/09/16 09:17:46;;;;;;;7.43;1.73;;;;;;;;;;5113494;28;20051;-64
2021/09/16 09:20:32;;;;;;;4.55;1.50;;;;;;;;;;5114619;28;20044;-63
2021/09/16 09:23:24;;;;;;;6.35;1.83;;;;;;;;;;5100972;28;20501;-64
2021/09/16 09:26:20;;;;;;;6.85;1.38;;;;;;;;;;5115732;28;20055;-64
2021/09/16 09:29:09;;;;;;;6.07;1.30;;;;;;;;;;5114377;28;20056;-62
2021/09/16 09:32:05;;;;;;;7.95;1.20;;;;;;;;;;5112991;28;20088;-63
2021/09/16 09:34:51;;;;;;;8.90;2.10;;;;;;;;;;5112937;28;20459;-63
2021/09/16 09:37:36;;;;;;;5.40;1.17;;;;;;;;;;5113123;28;20047;-62
2021/09/16 09:40:31;;;;;;;6.72;1.90;;;;;;;;;;5112896;28;20052;-62
2021/09/16 09:43:26;;;;;;;3.47;1.23;;;;;;;;;;5113106;28;20056;-63
2021/09/16 09:46:12;;;;;;;7.50;1.30;;;;;;;;;;5112954;28;20092;-62
2021/09/16 09:49:00;;;;;;;3.33;1.40;;;;;;;;;;5112676;28;20100;-62
2021/09/16 09:51:45;;;;;;;4.10;0.88;;;;;;;;;;5133465;22;20092;-64
2021/09/16 09:54:34;;;;;;;2.70;0.80;;;;;;;;;;5096189;28;20559;-63
2021/09/16 09:57:19;;;;;;;4.30;0.88;;;;;;;;;;5113809;28;20052;-63
2021/09/16 10:00:09;;;;;;;4.45;1.10;;;;;;;;;;5098620;28;20051;-63
2021/09/16 10:03:01;;;;;;;5.05;1.35;;;;;;;;;;5088739;28;20091;-63
2021/09/16 10:05:47;;;;;;;6.28;1.20;;;;;;;;;;5076845;28;20079;-63
2021/09/16 10:08:32;;;;;;;8.93;1.13;;;;;;;;;;5092180;28;20505;-63
2021/09/16 10:11:36;;;;;;;4.82;0.95;;;;;;;;;;5092128;28;20052;-63
2021/09/16 10:14:21;;;;;;;2.47;0.60;;;;;;;;;;5107567;28;20123;-63
2021/09/16 10:17:07;;;;;;;3.35;0.85;;;;;;;;;;5075768;28;20052;-65
2021/09/16 10:19:52;;;;;;;3.38;0.70;;;;;;;;;;5092150;28;20422;-62
2021/09/16 10:22:37;;;;;;;5.88;1.38;;;;;;;;;;5092148;28;20123;-63
2021/09/16 10:25:23;;;;;;;4.90;1.25;;;;;;;;;;5091910;28;20436;-62
2021/09/16 10:28:09;;;;;;;2.97;0.95;;;;;;;;;;5092051;28;20123;-62
2021/09/16 10:30:54;;;;;;;4.03;1.23;;;;;;;;;;5091988;28;20413;-62
2021/09/16 10:33:39;;;;;;;4.78;1.00;;;;;;;;;;5091697;28;20052;-63
2021/09/16 10:36:25;;;;;;;1.77;0.75;;;;;;;;;;5091900;28;20122;-63
2021/09/16 10:39:17;;;;;;;3.85;0.88;;;;;;;;;;5076798;28;20056;-62
2021/09/16 10:42:02;;;;;;;;;;;;;;;;;;5092347;28;20502;-62
2021/09/16 10:44:47;;;;;;;5.97;1.00;;;;;;;;;;5091611;28;19919;-63
2021/09/16 10:47:32;;;;;;;2.38;0.80;;;;;;;;;;5076846;28;20052;-63
2021/09/16 10:50:20;;;;;;;3.50;0.90;;;;;;;;;;5091919;28;20052;-62
2021/09/16 10:53:30;;;;;;;3.65;1.10;;;;;;;;;;5091605;28;20490;-62
2021/09/16 10:56:28;;;;;;;3.17;0.85;;;;;;;;;;5105063;28;20056;-64
2021/09/16 10:59:13;;;;;;;4.53;0.70;;;;;;;;;;5090501;28;20055;-62
2021/09/16 11:01:59;;;;;;;4.07;0.80;;;;;;;;;;5085684;28;20418;-63
2021/09/16 11:04:57;;;;;;;2.95;0.80;;;;;;;;;;5106288;28;20054;-63
2021/09/16 11:07:44;;;;;;;6.85;1.35;;;;;;;;;;5095557;28;20048;-62
2021/09/16 11:10:30;;;;;;;4.63;0.80;;;;;;;;;;5096033;28;20833;-65
2021/09/16 11:13:34;;;;;;;6.00;1.10;;;;;;;;;;5060251;28;20048;-63
2021/09/16 11:16:21;;;;;;;2.58;0.90;;;;;;;;;;5095319;28;20048;-62
2021/09/16 11:19:06;;;;;;;1.63;0.50;;;;;;;;;;5095321;28;20520;-62
2021/09/16 11:21:58;;;;;;;2.78;0.70;;;;;;;;;;5095312;28;20079;-63
2021/09/16 11:24:43;;;;;;;;;;;;;;;;;;5098526;28;20104;-65
2021/09/16 11:27:35;;;;;;;3.63;0.70;;;;;;;;;;5113699;28;19920;-62
2021/09/16 11:30:21;;;;;;;1.58;0.65;;;;;;;;;;5109110;28;20119;-63
2021/09/16 11:33:07;;;;;;;4.78;0.90;;;;;;;;;;5094850;28;20090;-63
2021/09/16 11:35:52;;;;;;;2.78;1.10;;;;;;;;;;5095013;28;20087;-62
2021/09/16 11:38:37;;;;;;;2.75;0.60;;;;;;;;;;5094990;28;20040;-62
2021/09/16 11:41:27;;;;;;;1.98;0.80;;;;;;;;;;5103699;28;20052;-63
2021/09/16 11:44:13;;;;;;;3.45;0.85;;;;;;;;;;5098627;28;20078;-63
2021/09/16 11:46:58;;;;;;;3.55;0.75;;;;;;;;;;5097570;28;20048;-64
2021/09/16 11:49:44;;;;;;;2.97;0.93;;;;;;;;;;5098190;28;20575;-63
2021/09/16 11:52:29;;;;;;;2.85;0.85;;;;;;;;;;5094040;28;20052;-62
2021/09/16 11:55:15;;;;;;;1.95;0.70;;;;;;;;;;5111738;28;20110;-64
2021/09/16 11:58:02;;;;;;;3.13;0.77;;;;;;;;;;5108398;28;20056;-63
2021/09/16 12:00:48;;;;;;;14.30;1.50;;;;;;;;;;5094031;28;20048;-62
2021/09/16 12:03:34;;;;;;;2.95;0.65;;;;;;;;;;5090678;28;20523;-63
2021/09/16 12:06:19;;;;;;;3.10;0.70;;;;;;;;;;5090872;28;20052;-63
2021/09/16 12:09:05;;;;;;;4.00;0.90;;;;;;;;;;5085880;28;20075;-62
2021/09/16 12:11:49;;;;;;;4.25;1.00;;;;;;;;;;5094322;28;20060;-62
2021/09/16 12:14:36;;;;;;;3.40;1.00;;;;;;;;;;5078865;28;20124;-62
2021/09/16 12:17:21;;;;;;;3.17;0.50;;;;;;;;;;5104489;28;20390;-63
2021/09/16 12:20:06;;;;;;;5.25;1.40;;;;;;;;;;5072674;28;20052;-63
2021/09/16 12:22:51;;;;;;;3.80;0.90;;;;;;;;;;5096438;28;20048;-62
2021/09/16 12:25:48;;;;;;;3.45;0.70;;;;;;;;;;5093944;28;20090;-62
2021/09/16 12:28:33;;;;;;;3.38;0.85;;;;;;;;;;5094113;28;20178;-62
2021/09/16 12:31:22;;;;;;;2.58;0.90;;;;;;;;;;5093827;28;20509;-62
2021/09/16 12:34:08;;;;;;;2.80;0.85;;;;;;;;;;5093839;28;20044;-62
2021/09/16 12:36:54;;;;;;;3.45;0.85;;;;;;;;;;5093844;28;20052;-62
2021/09/16 12:39:46;;;;;;;4.40;0.88;;;;;;;;;;5096278;28;20044;-63
2021/09/16 12:42:36;;;;;;;2.35;0.80;;;;;;;;;;5094922;28;20460;-62
2021/09/16 12:45:21;;;;;;;1.55;0.70;;;;;;;;;;5093467;28;20127;-62
2021/09/16 12:48:15;;;;;;;2.85;0.80;;;;;;;;;;5093448;28;20127;-63
2021/09/16 12:51:07;;;;;;;1.10;0.77;;;;;;;;;;5093463;28;20126;-62
2021/09/16 12:53:53;;;;;;;2.85;0.63;;;;;;;;;;5093103;28;20093;-64
2021/09/16 12:56:38;;;;;;;2.63;0.85;;;;;;;;;;5093270;28;20051;-64
2021/09/16 12:59:24;;;;;;;3.10;0.65;;;;;;;;;;5093347;28;20509;-62
2021/09/16 13:02:12;;;;;;;10.85;0.82;;;;;;;;;;5107674;28;20072;-63
2021/09/16 13:04:59;;;;;;;1.73;0.60;;;;;;;;;;5068851;28;20051;-62
2021/09/16 13:07:45;;;;;;;2.50;0.60;;;;;;;;;;5093598;28;20059;-63
2021/09/16 13:10:30;;;;;;;1.65;0.70;;;;;;;;;;5093501;28;20056;-62
2021/09/16 13:13:16;;;;;;;2.53;0.73;;;;;;;;;;5092802;28;20052;-63
2021/09/16 13:16:06;;;;;;;2.55;0.80;;;;;;;;;;5093091;28;20048;-63
2021/09/16 13:18:52;;;;;;;5.25;0.82;;;;;;;;;;5092975;28;20052;-63
2021/09/16 13:21:37;;;;;;;2.50;0.60;;;;;;;;;;5092748;28;20502;-62
2021/09/16 13:24:22;;;;;;;2.15;0.80;;;;;;;;;;5092810;28;20460;-62
2021/09/16 13:27:08;;;;;;;3.08;0.70;;;;;;;;;;5092832;28;20052;-63
2021/09/16 13:29:53;;;;;;;1.83;0.88;;;;;;;;;;5091709;28;20052;-62
2021/09/16 13:32:38;;;;;;;1.10;0.77;;;;;;;;;;5092718;28;20052;-63
2021/09/16 13:35:24;;;;;;;3.20;1.10;;;;;;;;;;5107141;28;20103;-63
2021/09/16 13:38:09;;;;;;;4.20;0.73;;;;;;;;;;5107884;28;20074;-64
2021/09/16 13:40:55;;;;;;;3.42;0.88;;;;;;;;;;5088452;28;20052;-64
2021/09/16 13:43:40;;;;;;;2.55;0.88;;;;;;;;;;5075292;28;20048;-64
2021/09/16 13:46:26;;;;;;;1.42;0.60;;;;;;;;;;5072613;28;20056;-64
2021/09/16 13:49:11;;;;;;;3.42;0.68;;;;;;;;;;5103715;28;20056;-64
2021/09/16 13:51:56;;;;;;;1.83;0.52;;;;;;;;;;5103122;28;20047;-63
2021/09/16 13:54:41;;;;;;;2.22;0.55;;;;;;;;;;5065087;28;20055;-63
2021/09/16 13:57:27;;;;;;;4.45;0.85;;;;;;;;;;5092484;28;20044;-63
2021/09/16 14:00:12;;;;;;;2.08;0.80;;;;;;;;;;5092417;28;20048;-64
2021/09/16 14:02:57;;;;;;;2.75;0.70;;;;;;;;;;5092194;28;20048;-62
2021/09/16 14:05:42;;;;;;;2.38;0.90;;;;;;;;;;5092168;28;20052;-63
2021/09/16 14:08:28;;;;;;;4.57;1.30;;;;;;;;;;5092323;28;20118;-63
2021/09/16 14:11:14;;;;;;;2.35;1.00;;;;;;;;;;5092151;28;20052;-63
2021/09/16 14:13:59;;;;;;;2.80;0.80;;;;;;;;;;5092047;28;20044;-63
2021/09/16 14:16:44;;;;;;;5.05;1.27;;;;;;;;;;5092286;28;20126;-63
2021/09/16 14:19:30;;;;;;;2.78;1.20;;;;;;;;;;5092205;28;20040;-63
2021/09/16 14:22:15;;;;;;;3.80;0.90;;;;;;;;;;5091921;28;20505;-63
2021/09/16 14:25:01;;;;;;;4.35;1.30;;;;;;;;;;5091875;28;20060;-63
2021/09/16 14:27:46;;;;;;;4.72;1.58;;;;;;;;;;5091972;28;20060;-63
2021/09/16 14:30:32;;;;;;;1.52;1.17;;;;;;;;;;5092073;28;20056;-64
2021/09/16 14:33:20;;;;;;;3.45;1.10;;;;;;;;;;5091999;28;20083;-64
2021/09/16 14:36:05;;;;;;;3.10;1.20;;;;;;;;;;5091966;28;20436;-63
2021/09/16 14:38:50;;;;;;;2.15;0.90;;;;;;;;;;5092153;28;20050;-63
2021/09/16 14:41:36;;;;;;;2.40;1.00;;;;;;;;;;5095109;28;20436;-63
2021/09/16 14:44:21;;;;;;;5.00;1.10;;;;;;;;;;5095725;28;20064;-63
2021/09/16 14:47:06;;;;;;;2.50;1.30;;;;;;;;;;5095841;28;20426;-63
2021/09/16 14:49:52;;;;;;;2.25;1.30;;;;;;;;;;5107928;28;20048;-64
2021/09/16 14:52:37;;;;;;;3.15;1.20;;;;;;;;;;5108902;28;20415;-65
2021/09/16 14:55:23;;;;;;;1.90;1.10;;;;;;;;;;5078779;28;20055;-64
2021/09/16 14:58:08;;;;;;;3.90;1.13;;;;;;;;;;5065004;28;20173;-64
2021/09/16 15:00:54;;;;;;;2.15;0.98;;;;;;;;;;5095714;28;20055;-65
2021/09/16 15:03:39;;;;;;;1.77;1.20;;;;;;;;;;5084523;28;20123;-63
2021/09/16 15:06:24;;;;;;;1.65;1.00;;;;;;;;;;5095874;28;20052;-63
2021/09/16 15:09:09;;;;;;;6.35;1.50;;;;;;;;;;5103865;28;20071;-64
2021/09/16 15:11:55;;;;;;;5.13;1.08;;;;;;;;;;5097111;28;20111;-65
2021/09/16 15:14:40;;;;;;;1.63;0.80;;;;;;;;;;5093529;28;20052;-64
2021/09/16 15:17:26;;;;;;;3.50;1.10;;;;;;;;;;5083067;28;20059;-64
2021/09/16 15:20:11;;;;;;;1.75;1.00;;;;;;;;;;5095202;28;20048;-63
2021/09/16 15:22:57;;;;;;;2.20;0.93;;;;;;;;;;5095418;28;20048;-64
2021/09/16 15:25:42;;;;;;;7.93;1.25;;;;;;;;;;5094931;28;20048;-63
2021/09/16 15:28:28;;;;;;;1.80;0.93;;;;;;;;;;5095049;28;20044;-63
2021/09/16 15:31:13;;;;;;;2.97;0.88;;;;;;;;;;5098641;28;20052;-64
2021/09/16 15:33:58;;;;;;;3.20;0.95;;;;;;;;;;5109575;28;20058;-63
2021/09/16 15:36:43;;;;;;;2.58;0.80;;;;;;;;;;5094875;28;20052;-64
2021/09/16 15:39:29;;;;;;;1.48;0.77;;;;;;;;;;5095035;28;20131;-64
2021/09/16 15:42:15;;;;;;;2.67;0.90;;;;;;;;;;5094918;28;20127;-63
2021/09/16 15:45:00;;;;;;;1.73;0.88;;;;;;;;;;5094557;28;20051;-65
2021/09/16 15:47:45;;;;;;;2.95;0.90;;;;;;;;;;5094936;28;20080;-64
2021/09/16 15:50:30;;;;;;;1.13;0.70;;;;;;;;;;5094761;28;20048;-64
2021/09/16 15:53:16;;;;;;;2.78;1.00;;;;;;;;;;5125266;22;20126;-63
2021/09/16 15:56:02;;;;;;;1.30;0.90;;;;;;;;;;5114000;28;20051;-63
2021/09/16 15:58:47;;;;;;;2.42;0.98;;;;;;;;;;5113946;28;20051;-63
2021/09/16 16:01:33;;;;;;;2.40;1.30;;;;;;;;;;5113701;28;20044;-63
2021/09/16 16:04:18;;;;;;;1.35;0.70;;;;;;;;;;5113461;28;20476;-63
2021/09/16 16:07:03;;;;;;;2.80;0.90;;;;;;;;;;5113874;28;20047;-63
2021/09/16 16:09:48;;;;;;;4.07;1.20;;;;;;;;;;5113746;28;20052;-63
2021/09/16 16:12:34;;;;;;;3.95;1.00;;;;;;;;;;5114137;28;20261;-64
2021/09/16 16:15:19;;;;;;;2.28;1.10;;;;;;;;;;5113719;28;20044;-64
2021/09/16 16:18:05;;;;;;;2.85;1.00;;;;;;;;;;5113629;28;20047;-64
2021/09/16 16:20:50;;;;;;;6.13;1.20;;;;;;;;;;5113597;28;20047;-63
2021/09/16 16:23:35;;;;;;;4.45;1.20;;;;;;;;;;5097848;28;20055;-63
2021/09/16 16:26:20;;;;;;;4.00;1.70;;;;;;;;;;5113496;28;20421;-63
2021/09/16 16:29:06;;;;;;;3.00;1.60;;;;;;;;;;5113781;28;20051;-62
2021/09/16 16:31:51;;;;;;;5.28;1.80;;;;;;;;;;5113956;28;20059;-63